createdAt,value
2019-05-21T00:02:26.330Z,99372.17
2019-05-21T00:04:54.765Z,99374.09
2019-05-21T00:07:23.306Z,99374.09
2019-05-21T00:09:51.871Z,99377.91
2019-05-21T00:12:20.304Z,99370.74
2019-05-21T00:14:48.841Z,99366.17
2019-05-21T00:17:17.342Z,99367.03
2019-05-21T00:19:45.774Z,99368.25
2019-05-21T00:22:14.248Z,99367.59
2019-05-21T00:24:42.860Z,99366.26
2019-05-21T00:27:11.272Z,99372.09
2019-05-21T00:30:16.184Z,99373.63
2019-05-21T00:33:21.292Z,99371.05
2019-05-21T00:36:27.711Z,99370.55
2019-05-21T00:39:32.438Z,99373.41
2019-05-21T00:42:00.548Z,99371.41
2019-05-21T00:44:32.006Z,99374.37
2019-05-21T00:47:01.349Z,99365.30
2019-05-21T00:49:29.875Z,99371.70
2019-05-21T00:52:06.962Z,99373.41
2019-05-21T00:54:28.605Z,99374.84
2019-05-21T00:56:57.128Z,99377.72
2019-05-21T00:59:25.568Z,99375.23
2019-05-21T01:01:54.254Z,99374.47
2019-05-21T01:04:22.732Z,99374.37
2019-05-21T01:06:51.193Z,99371.21
2019-05-21T01:09:19.772Z,99379.34
2019-05-21T01:11:48.374Z,99372.01
2019-05-21T01:14:16.868Z,99370.56
2019-05-21T01:16:45.405Z,99371.70
2019-05-21T01:19:13.936Z,99376.08
2019-05-21T01:21:42.378Z,99369.50
2019-05-21T01:24:10.886Z,99368.37
2019-05-21T01:26:39.427Z,99364.52
2019-05-21T01:29:07.925Z,99368.75
2019-05-21T01:31:36.418Z,99367.39
2019-05-21T01:34:05.117Z,99367.61
2019-05-21T01:36:33.548Z,99367.58
2019-05-21T01:39:01.986Z,99368.64
2019-05-21T01:41:30.438Z,99364.73
2019-05-21T01:43:58.859Z,99364.44
2019-05-21T01:46:27.278Z,99363.50
2019-05-21T01:48:55.920Z,99368.83
2019-05-21T01:51:24.342Z,99366.26
2019-05-21T01:53:52.766Z,99366.72
2019-05-21T01:56:21.351Z,99366.23
2019-05-21T01:58:49.772Z,99363.48
2019-05-21T02:01:18.201Z,99364.62
2019-05-21T02:03:46.724Z,99356.59
2019-05-21T02:06:15.215Z,99358.14
2019-05-21T02:08:43.636Z,99360.72
2019-05-21T02:11:12.077Z,99353.34
2019-05-21T02:13:40.514Z,99354.88
2019-05-21T02:16:09.081Z,99350.56
2019-05-21T02:18:37.780Z,99342.08
2019-05-21T02:21:06.343Z,99334.44
2019-05-21T02:23:34.834Z,99341.22
2019-05-21T02:26:03.376Z,99341.86
2019-05-21T02:28:31.875Z,99341.77
2019-05-21T02:31:00.312Z,99343.85
2019-05-21T02:33:28.967Z,99353.53
2019-05-21T02:35:57.371Z,99358.50
2019-05-21T02:38:25.792Z,99354.01
2019-05-21T02:40:54.311Z,99361.27
2019-05-21T02:43:22.814Z,99353.14
2019-05-21T02:45:51.367Z,99350.38
2019-05-21T02:48:19.825Z,99351.61
2019-05-21T02:50:48.269Z,99349.33
2019-05-21T02:53:16.758Z,99347.58
2019-05-21T02:55:45.409Z,99350.35
2019-05-21T02:58:13.836Z,99353.42
2019-05-21T03:00:58.758Z,99351.05
2019-05-21T03:03:29.032Z,99359.52
2019-05-21T03:06:12.277Z,99357.92
2019-05-21T03:08:27.779Z,99352.77
2019-05-21T03:10:56.244Z,99345.03
2019-05-21T03:13:24.681Z,99350.47
2019-05-21T03:15:53.209Z,99341.38
2019-05-21T03:18:21.804Z,99338.89
2019-05-21T03:20:50.291Z,99338.13
2019-05-21T03:23:19.029Z,99345.39
2019-05-21T03:25:47.561Z,99358.49
2019-05-21T03:28:16.032Z,99357.64
2019-05-21T03:30:44.550Z,99365.55
2019-05-21T03:33:12.962Z,99378.85
2019-05-21T03:35:41.458Z,99378.56
2019-05-21T03:38:09.999Z,99387.77
2019-05-21T03:40:38.401Z,99389.93
2019-05-21T03:43:06.823Z,99388.25
2019-05-21T03:45:35.381Z,99389.07
2019-05-21T03:48:04.037Z,99389.67
2019-05-21T03:50:32.526Z,99388.78
2019-05-21T03:53:01.059Z,99392.77
2019-05-21T03:55:29.555Z,99391.63
2019-05-21T03:57:58.045Z,99380.98
2019-05-21T04:00:26.565Z,99373.89
2019-05-21T04:02:55.135Z,99374.57
2019-05-21T04:05:25.280Z,99364.64
2019-05-21T04:07:53.801Z,99351.34
2019-05-21T04:10:22.487Z,99355.89
2019-05-21T04:13:06.624Z,99361.25
2019-05-21T04:15:38.144Z,99365.88
2019-05-21T04:18:08.291Z,99366.63
2019-05-21T04:20:36.848Z,99370.05
2019-05-21T04:23:05.356Z,99373.58
2019-05-21T04:25:33.886Z,99376.06
2019-05-21T04:28:02.364Z,99388.20
2019-05-21T04:30:30.822Z,99388.16
2019-05-21T04:32:59.249Z,99375.30
2019-05-21T04:35:27.714Z,99380.55
2019-05-21T04:37:56.145Z,99382.45
2019-05-21T04:40:24.578Z,99382.84
2019-05-21T04:42:53.032Z,99383.52
2019-05-21T04:45:21.525Z,99374.64
2019-05-21T04:47:50.098Z,99369.57
2019-05-21T04:50:18.659Z,99374.64
2019-05-21T04:52:47.096Z,99375.63
2019-05-21T04:55:15.526Z,99376.78
2019-05-21T04:57:43.978Z,99376.58
2019-05-21T05:00:12.661Z,99389.23
2019-05-21T05:02:41.111Z,99386.50
2019-05-21T05:05:09.712Z,99383.99
2019-05-21T05:07:38.144Z,99384.98
2019-05-21T05:10:07.303Z,99387.66
2019-05-21T05:12:35.784Z,99379.38
2019-05-21T05:15:05.952Z,99394.49
2019-05-21T05:17:34.466Z,99392.70
2019-05-21T05:20:03.513Z,99389.27
2019-05-21T05:22:31.940Z,99385.72
2019-05-21T05:25:00.461Z,99386.38
2019-05-21T05:27:29.058Z,99385.13
2019-05-21T05:29:57.490Z,99384.78
2019-05-21T05:32:26.084Z,99384.72
2019-05-21T05:34:54.540Z,99381.21
2019-05-21T05:37:22.986Z,99389.73
2019-05-21T05:39:51.588Z,99398.80
2019-05-21T05:42:21.568Z,99399.86
2019-05-21T05:44:49.982Z,99392.58
2019-05-21T05:47:18.620Z,99402.71
2019-05-21T05:49:48.900Z,99404.16
2019-05-21T05:52:17.413Z,99401.63
2019-05-21T05:54:45.846Z,99409.86
2019-05-21T05:57:14.465Z,99404.59
2019-05-21T05:59:42.884Z,99409.22
2019-05-21T06:02:11.378Z,99406.21
2019-05-21T06:04:39.837Z,99397.63
2019-05-21T06:07:08.264Z,99408.08
2019-05-21T06:09:36.769Z,99408.16
2019-05-21T06:12:05.400Z,99406.21
2019-05-21T06:14:33.834Z,99412.47
2019-05-21T06:17:02.656Z,99418.02
2019-05-21T06:19:31.412Z,99420.44
2019-05-21T06:21:59.865Z,99425.36
2019-05-21T06:24:28.287Z,99422.77
2019-05-21T06:26:56.768Z,99433.38
2019-05-21T06:29:25.262Z,99424.99
2019-05-21T06:31:53.738Z,99427.80
2019-05-21T06:34:22.351Z,99417.51
2019-05-21T06:36:50.853Z,99424.29
2019-05-21T06:39:19.294Z,99423.48
2019-05-21T06:41:47.745Z,99436.49
2019-05-21T06:44:16.197Z,99439.81
2019-05-21T06:46:44.692Z,99447.78
2019-05-21T06:49:13.152Z,99454.03
2019-05-21T06:51:41.580Z,99454.06
2019-05-21T06:54:10.020Z,99452.58
2019-05-21T06:56:38.464Z,99453.05
2019-05-21T06:59:06.972Z,99456.61
2019-05-21T07:01:35.397Z,99460.27
2019-05-21T07:04:03.885Z,99461.23
2019-05-21T07:06:32.404Z,99468.55
2019-05-21T07:09:00.903Z,99471.77
2019-05-21T07:11:29.425Z,99480.63
2019-05-21T07:13:57.871Z,99482.77
2019-05-21T07:16:26.276Z,99476.55
2019-05-21T07:18:54.934Z,99479.34
2019-05-21T07:21:23.364Z,99488.09
2019-05-21T07:23:51.856Z,99482.28
2019-05-21T07:26:20.551Z,99485.68
2019-05-21T07:28:49.068Z,99483.14
2019-05-21T07:31:17.762Z,99484.77
2019-05-21T07:33:46.308Z,99480.76
2019-05-21T07:36:14.874Z,99493.08
2019-05-21T07:38:53.144Z,99492.51
2019-05-21T07:41:14.349Z,99483.34
2019-05-21T07:43:42.766Z,99487.44
2019-05-21T07:46:11.193Z,99484.86
2019-05-21T07:48:39.685Z,99491.17
2019-05-21T07:51:08.169Z,99490.31
2019-05-21T07:53:36.596Z,99495.25
2019-05-21T07:56:05.120Z,99496.88
2019-05-21T07:58:33.557Z,99504.44
2019-05-21T08:01:02.079Z,99507.01
2019-05-21T08:03:30.544Z,99506.74
2019-05-21T08:05:58.986Z,99506.72
2019-05-21T08:08:27.485Z,99506.71
2019-05-21T08:10:55.963Z,99500.13
2019-05-21T08:13:24.368Z,99506.05
2019-05-21T08:15:52.868Z,99518.95
2019-05-21T08:18:21.432Z,99522.07
2019-05-21T08:20:50.008Z,99519.24
2019-05-21T08:23:18.438Z,99520.91
2019-05-21T08:25:46.912Z,99529.47
2019-05-21T08:28:15.414Z,99532.61
2019-05-21T08:30:43.839Z,99536.63
2019-05-21T08:33:12.300Z,99534.57
2019-05-21T08:35:40.794Z,99538.42
2019-05-21T08:38:09.228Z,99533.66
2019-05-21T08:40:37.755Z,99542.03
2019-05-21T08:43:06.258Z,99531.95
2019-05-21T08:45:34.698Z,99540.40
2019-05-21T08:48:03.332Z,99544.11
2019-05-21T08:50:31.758Z,99544.17
2019-05-21T08:53:00.257Z,99550.20
2019-05-21T08:55:28.740Z,99559.77
2019-05-21T09:00:27.892Z,99581.31
2019-05-21T09:02:56.461Z,99590.34
2019-05-21T09:03:13.793Z,99576.61
2019-05-21T09:05:24.964Z,99588.61
2019-05-21T09:07:54.260Z,99588.66
2019-05-21T09:10:22.699Z,99602.19
2019-05-21T09:12:51.149Z,99610.03
2019-05-21T09:15:20.016Z,99603.23
2019-05-21T09:17:48.577Z,99605.61
2019-05-21T09:20:17.442Z,99601.12
2019-05-21T09:22:46.036Z,99607.36
2019-05-21T09:25:14.828Z,99615.60
2019-05-21T09:27:43.395Z,99620.21
2019-05-21T09:30:13.765Z,99628.89
2019-05-21T09:32:42.299Z,99629.18
2019-05-21T09:35:11.894Z,99628.02
2019-05-21T09:37:40.430Z,99634.80
2019-05-21T09:40:11.190Z,99638.81
2019-05-21T09:42:39.653Z,99637.86
2019-05-21T09:45:10.244Z,99641.53
2019-05-21T09:47:38.907Z,99657.66
2019-05-21T09:50:08.440Z,99655.74
2019-05-21T09:52:36.903Z,99645.62
2019-05-21T09:55:06.400Z,99649.63
2019-05-21T09:57:38.087Z,99649.54
2019-05-21T10:00:16.375Z,99647.02
2019-05-21T10:02:44.805Z,99651.08
2019-05-21T10:05:13.546Z,99654.09
2019-05-21T10:07:42.004Z,99659.24
2019-05-21T10:10:10.536Z,99664.72
2019-05-21T10:12:38.962Z,99663.20
2019-05-21T10:15:08.384Z,99660.97
2019-05-21T10:17:36.808Z,99670.27
2019-05-21T10:20:06.970Z,99659.72
2019-05-21T10:22:35.553Z,99652.70
2019-05-21T10:25:05.114Z,99649.41
2019-05-21T10:27:33.776Z,99647.47
2019-05-21T10:30:02.501Z,99657.81
2019-05-21T10:32:31.059Z,99661.65
2019-05-21T10:34:59.502Z,99669.09
2019-05-21T10:37:28.235Z,99663.33
2019-05-21T10:39:56.670Z,99664.11
2019-05-21T10:42:25.187Z,99655.08
2019-05-21T10:44:53.743Z,99662.73
2019-05-21T10:47:22.160Z,99665.60
2019-05-21T10:49:50.958Z,99675.80
2019-05-21T10:52:19.575Z,99669.31
2019-05-21T10:54:48.067Z,99672.48
2019-05-21T10:57:16.497Z,99677.33
2019-05-21T10:59:45.001Z,99688.77
2019-05-21T11:02:20.740Z,99695.03
2019-05-21T11:04:50.896Z,99704.06
2019-05-21T11:07:19.779Z,99700.92
2019-05-21T11:09:48.270Z,99710.08
2019-05-21T11:12:17.065Z,99712.91
2019-05-21T11:14:45.573Z,99703.90
2019-05-21T11:17:14.155Z,99712.05
2019-05-21T11:19:42.689Z,99717.23
2019-05-21T11:22:11.184Z,99718.28
2019-05-21T11:24:39.667Z,99724.39
2019-05-21T11:27:09.045Z,99724.05
2019-05-21T11:29:37.566Z,99723.77
2019-05-21T11:32:06.427Z,99734.66
2019-05-21T11:34:35.063Z,99742.17
2019-05-21T11:37:03.532Z,99754.52
2019-05-21T11:39:32.018Z,99753.33
2019-05-21T11:42:00.733Z,99761.17
2019-05-21T11:44:29.223Z,99765.82
2019-05-21T11:46:57.647Z,99772.05
2019-05-21T11:49:26.121Z,99777.53
2019-05-21T11:51:54.640Z,99778.95
2019-05-21T11:54:23.072Z,99785.88
2019-05-21T11:56:51.518Z,99783.91
2019-05-21T11:59:20.019Z,99789.86
2019-05-21T12:01:48.803Z,99797.45
2019-05-21T12:04:17.355Z,99801.98
2019-05-21T12:06:45.861Z,99810.41
2019-05-21T12:09:14.309Z,99809.70
2019-05-21T12:11:42.773Z,99809.77
2019-05-21T12:14:11.331Z,99800.64
2019-05-21T12:16:39.794Z,99810.40
2019-05-21T12:19:08.772Z,99808.09
2019-05-21T12:21:37.257Z,99810.48
2019-05-21T12:24:05.861Z,99812.81
2019-05-21T12:26:34.554Z,99810.86
2019-05-21T12:29:03.045Z,99811.27
2019-05-21T12:31:31.465Z,99821.17
2019-05-21T12:33:59.942Z,99814.41
2019-05-21T12:36:28.370Z,99816.17
2019-05-21T12:39:11.632Z,99817.81
2019-05-21T12:41:27.111Z,99816.38
2019-05-21T12:43:55.611Z,99825.66
2019-05-21T12:46:24.204Z,99833.66
2019-05-21T12:48:52.806Z,99837.54
2019-05-21T12:51:21.262Z,99831.77
2019-05-21T12:53:49.693Z,99843.56
2019-05-21T12:56:18.157Z,99843.89
2019-05-21T12:58:46.663Z,99854.64
2019-05-21T13:01:15.164Z,99855.17
2019-05-21T13:03:43.788Z,99865.53
2019-05-21T13:06:12.587Z,99866.77
2019-05-21T13:08:41.068Z,99875.45
2019-05-21T13:11:09.646Z,99877.59
2019-05-21T13:13:38.084Z,99884.62
2019-05-21T13:16:06.564Z,99887.08
2019-05-21T13:18:35.030Z,99894.87
2019-05-21T13:21:03.501Z,99895.84
2019-05-21T13:23:31.919Z,99905.98
2019-05-21T13:26:00.501Z,99906.06
2019-05-21T13:28:29.065Z,99908.44
2019-05-21T13:30:57.645Z,99915.45
2019-05-21T13:33:26.105Z,99915.52
2019-05-21T13:35:54.523Z,99917.50
2019-05-21T13:38:23.015Z,99918.50
2019-05-21T13:40:53.365Z,99921.59
2019-05-21T13:43:21.855Z,99920.15
2019-05-21T13:45:50.366Z,99920.48
2019-05-21T13:48:18.859Z,99923.77
2019-05-21T13:50:47.272Z,99924.32
2019-05-21T13:53:15.836Z,99914.32
2019-05-21T13:55:44.776Z,99915.91
2019-05-21T13:58:13.237Z,99907.81
2019-05-21T14:00:43.304Z,99913.95
2019-05-21T14:03:12.870Z,99915.09
2019-05-21T14:05:41.669Z,99917.01
2019-05-21T14:08:10.269Z,99921.28
2019-05-21T14:10:39.151Z,99926.97
2019-05-21T14:13:07.799Z,99927.25
2019-05-21T14:15:36.251Z,99926.73
2019-05-21T14:18:04.861Z,99919.50
2019-05-21T14:20:33.348Z,99922.53
2019-05-21T14:23:01.841Z,99925.91
2019-05-21T14:25:30.645Z,99932.00
2019-05-21T14:27:59.081Z,99932.75
2019-05-21T14:30:27.576Z,99927.13
2019-05-21T14:32:56.098Z,99937.14
2019-05-21T14:35:24.545Z,99937.27
2019-05-21T14:37:52.979Z,99936.32
2019-05-21T14:40:31.642Z,99946.58
2019-05-21T14:43:00.125Z,99950.34
2019-05-21T14:45:23.197Z,99948.97
2019-05-21T14:47:51.803Z,99953.81
2019-05-21T14:50:20.291Z,99953.53
2019-05-21T14:52:52.088Z,99957.98
2019-05-21T14:55:19.469Z,99966.72
2019-05-21T14:57:47.890Z,99972.35
2019-05-21T15:00:21.984Z,99971.52
2019-05-21T15:02:50.552Z,99971.42
2019-05-21T15:05:19.119Z,99977.83
2019-05-21T15:07:49.751Z,99982.00
2019-05-21T15:10:17.927Z,99986.80
2019-05-21T15:12:46.351Z,99978.11
2019-05-21T15:15:15.390Z,99984.59
2019-05-21T15:17:44.073Z,99976.53
2019-05-21T15:20:23.831Z,99976.65
2019-05-21T15:22:52.371Z,99981.28
2019-05-21T15:25:20.878Z,99985.02
2019-05-21T15:27:49.300Z,99985.73
2019-05-21T15:30:18.268Z,99987.97
2019-05-21T15:32:46.692Z,99987.54
2019-05-21T15:35:15.458Z,99989.92
2019-05-21T15:37:45.103Z,99993.14
2019-05-21T15:40:14.149Z,99997.84
2019-05-21T15:42:42.644Z,100000.14
2019-05-21T15:45:11.534Z,99996.80
2019-05-21T15:47:40.130Z,99992.23
2019-05-21T15:50:09.196Z,99990.95
2019-05-21T15:52:37.726Z,99993.80
2019-05-21T15:55:07.725Z,99990.77
2019-05-21T15:57:36.273Z,99998.61
2019-05-21T16:00:10.180Z,100003.09
2019-05-21T16:02:38.760Z,100008.41
2019-05-21T16:05:07.930Z,100009.77
2019-05-21T16:07:36.974Z,100012.12
2019-05-21T16:10:07.329Z,100014.19
2019-05-21T16:12:35.868Z,100012.69
2019-05-21T16:15:06.741Z,100010.86
2019-05-21T16:17:35.182Z,100017.06
2019-05-21T16:20:05.393Z,100016.99
2019-05-21T16:22:33.874Z,100018.73
2019-05-21T16:25:02.310Z,100024.77
2019-05-21T16:27:30.741Z,100025.61
2019-05-21T16:29:59.228Z,100028.00
2019-05-21T16:32:27.724Z,100027.69
2019-05-21T16:34:56.280Z,100031.77
2019-05-21T16:37:24.921Z,100029.89
2019-05-21T16:39:54.006Z,100035.48
2019-05-21T16:42:22.609Z,100043.47
2019-05-21T16:44:51.102Z,100049.22
2019-05-21T16:47:19.614Z,100047.66
2019-05-21T16:49:48.234Z,100050.16
2019-05-21T16:52:16.694Z,100046.22
2019-05-21T16:54:45.135Z,100052.61
2019-05-21T16:57:13.621Z,100051.82
2019-05-21T16:59:42.141Z,100058.80
2019-05-21T17:02:10.770Z,100058.94
2019-05-21T17:04:39.160Z,100062.83
2019-05-21T17:07:07.694Z,100065.94
2019-05-21T17:09:36.131Z,100066.98
2019-05-21T17:12:05.099Z,100068.22
2019-05-21T17:14:33.591Z,100071.61
2019-05-21T17:17:02.171Z,100069.62
2019-05-21T17:19:30.751Z,100072.70
2019-05-21T17:21:59.283Z,100072.16
2019-05-21T17:24:27.802Z,100077.09
2019-05-21T17:26:56.300Z,100079.95
2019-05-21T17:29:24.796Z,100077.89
2019-05-21T17:31:53.280Z,100076.02
2019-05-21T17:34:21.793Z,100074.20
2019-05-21T17:36:50.399Z,100078.91
2019-05-21T17:39:18.907Z,100075.30
2019-05-21T17:41:47.419Z,100078.30
2019-05-21T17:44:15.989Z,100073.75
2019-05-21T17:46:44.442Z,100075.55
2019-05-21T17:49:13.015Z,100080.50
2019-05-21T17:51:41.677Z,100070.41
2019-05-21T17:54:10.188Z,100075.48
2019-05-21T17:56:38.714Z,100069.94
2019-05-21T17:59:07.273Z,100075.94
2019-05-21T18:01:35.939Z,100073.02
2019-05-21T18:04:04.906Z,100076.09
2019-05-21T18:06:33.844Z,100068.78
2019-05-21T18:09:03.957Z,100078.42
2019-05-21T18:11:32.464Z,100072.00
2019-05-21T18:14:01.079Z,100077.13
2019-05-21T18:16:29.515Z,100081.27
2019-05-21T18:18:58.419Z,100085.22
2019-05-21T18:21:27.632Z,100087.38
2019-05-21T18:23:56.455Z,100097.06
2019-05-21T18:26:25.053Z,100099.35
2019-05-21T18:28:53.594Z,100112.47
2019-05-21T18:31:22.111Z,100112.88
2019-05-21T18:33:50.552Z,100119.55
2019-05-21T18:36:19.236Z,100118.69
2019-05-21T18:38:47.916Z,100120.41
2019-05-21T18:41:18.162Z,100128.69
2019-05-21T18:43:49.920Z,100134.39
2019-05-21T18:46:16.945Z,100134.39
2019-05-21T18:48:45.382Z,100135.77
2019-05-21T18:51:13.920Z,100134.96
2019-05-21T18:53:42.356Z,100144.69
2019-05-21T18:56:11.866Z,100147.72
2019-05-21T18:58:40.754Z,100152.41
2019-05-21T19:01:09.246Z,100154.14
2019-05-21T19:03:37.821Z,100157.47
2019-05-21T19:06:06.369Z,100163.45
2019-05-21T19:08:34.890Z,100163.50
2019-05-21T19:11:03.729Z,100172.73
2019-05-21T19:13:32.273Z,100173.31
2019-05-21T19:16:00.785Z,100175.13
2019-05-21T19:18:29.303Z,100188.41
2019-05-21T19:20:57.922Z,100194.70
2019-05-21T19:23:26.365Z,100189.68
2019-05-21T19:25:54.938Z,100190.89
2019-05-21T19:28:23.451Z,100192.61
2019-05-21T19:30:52.035Z,100191.34
2019-05-21T19:33:20.571Z,100188.59
2019-05-21T19:35:49.214Z,100199.83
2019-05-21T19:38:19.664Z,100200.91
2019-05-21T19:40:48.098Z,100203.02
2019-05-21T19:43:16.741Z,100209.39
2019-05-21T19:45:45.249Z,100214.46
2019-05-21T19:48:13.760Z,100218.20
2019-05-21T19:50:42.298Z,100220.28
2019-05-21T19:53:10.771Z,100223.71
2019-05-21T19:55:39.672Z,100221.03
2019-05-21T19:58:08.673Z,100223.96
2019-05-21T20:00:38.923Z,100227.89
2019-05-21T20:03:07.611Z,100234.85
2019-05-21T20:05:36.621Z,100241.00
2019-05-21T20:08:05.135Z,100240.86
2019-05-21T20:10:34.275Z,100244.69
2019-05-21T20:13:02.985Z,100244.14
2019-05-21T20:15:31.501Z,100246.42
2019-05-21T20:18:07.393Z,100247.03
2019-05-21T20:20:30.705Z,100249.82
2019-05-21T20:23:00.086Z,100258.52
2019-05-21T20:25:30.589Z,100260.90
2019-05-21T20:27:59.695Z,100259.30
2019-05-21T20:30:28.865Z,100263.10
2019-05-21T20:32:57.560Z,100256.09
2019-05-21T20:35:27.978Z,100254.36
2019-05-21T20:37:56.763Z,100255.44
2019-05-21T20:40:25.607Z,100260.49
2019-05-21T20:42:55.161Z,100256.45
2019-05-21T20:45:23.931Z,100255.97
2019-05-21T20:47:52.937Z,100261.45
2019-05-21T20:50:22.660Z,100260.52
2019-05-21T20:52:51.747Z,100263.64
2019-05-21T20:55:20.250Z,100261.06
2019-05-21T20:57:49.344Z,100264.92
2019-05-21T21:00:23.074Z,100259.96
2019-05-21T21:02:52.513Z,100271.66
2019-05-21T21:05:21.191Z,100268.73
2019-05-21T21:07:50.435Z,100271.66
2019-05-21T21:10:19.345Z,100266.66
2019-05-21T21:12:48.711Z,100263.22
2019-05-21T21:15:17.802Z,100266.36
2019-05-21T21:17:46.792Z,100264.31
2019-05-21T21:20:15.694Z,100262.91
2019-05-21T21:22:44.136Z,100258.31
2019-05-21T21:25:14.266Z,100267.52
2019-05-21T21:27:43.080Z,100268.00
2019-05-21T21:30:12.186Z,100270.28
2019-05-21T21:32:41.160Z,100274.04
2019-05-21T21:35:10.828Z,100277.09
2019-05-21T21:37:39.270Z,100282.62
2019-05-21T21:40:10.194Z,100281.88
2019-05-21T21:42:39.536Z,100281.89
2019-05-21T21:45:08.821Z,100281.94
2019-05-21T21:47:37.899Z,100279.97
2019-05-21T21:50:07.359Z,100283.47
2019-05-21T21:52:36.455Z,100284.14
2019-05-21T21:55:09.109Z,100286.78
2019-05-21T21:57:37.961Z,100288.14
2019-05-21T22:00:26.308Z,100279.33
2019-05-21T22:02:55.508Z,100287.38
2019-05-21T22:05:25.011Z,100289.66
2019-05-21T22:07:54.310Z,100290.70
2019-05-21T22:10:23.513Z,100291.64
2019-05-21T22:12:52.295Z,100287.63
2019-05-21T22:15:21.082Z,100293.38
2019-05-21T22:17:49.622Z,100292.60
2019-05-21T22:20:19.073Z,100292.28
2019-05-21T22:22:48.065Z,100292.80
2019-05-21T22:25:16.962Z,100293.78
2019-05-21T22:27:45.466Z,100290.28
2019-05-21T22:30:14.744Z,100290.58
2019-05-21T22:32:43.280Z,100293.52
2019-05-21T22:35:12.212Z,100300.23
2019-05-21T22:37:40.791Z,100303.64
2019-05-21T22:40:09.689Z,100303.23
2019-05-21T22:42:38.152Z,100301.17
2019-05-21T22:45:09.327Z,100298.53
2019-05-21T22:47:38.005Z,100300.41
2019-05-21T22:50:07.561Z,100299.00
2019-05-21T22:52:36.393Z,100291.75
2019-05-21T22:55:06.694Z,100292.75
2019-05-21T22:57:35.476Z,100298.46
2019-05-21T23:00:05.473Z,100301.20
2019-05-21T23:02:36.255Z,100299.36
2019-05-21T23:05:06.597Z,100294.02
2019-05-21T23:07:35.099Z,100294.05
2019-05-21T23:10:06.616Z,100292.79
2019-05-21T23:12:35.972Z,100297.56
2019-05-21T23:15:23.893Z,100297.52
2019-05-21T23:17:40.383Z,100289.02
2019-05-21T23:20:11.701Z,100293.34
2019-05-21T23:22:42.989Z,100288.95
2019-05-21T23:25:13.315Z,100278.37
2019-05-21T23:27:41.780Z,100281.64
2019-05-21T23:30:12.497Z,100279.70
2019-05-21T23:32:41.276Z,100279.53
2019-05-21T23:35:14.159Z,100271.39
2019-05-21T23:37:45.100Z,100273.42
2019-05-21T23:40:15.850Z,100272.92
2019-05-21T23:42:44.626Z,100275.28
2019-05-21T23:45:15.025Z,100274.44
2019-05-21T23:47:43.975Z,100273.62
2019-05-21T23:50:15.188Z,100278.16
2019-05-21T23:52:44.540Z,100271.61
2019-05-21T23:55:13.417Z,100274.48
2019-05-21T23:57:42.561Z,100266.56
